Vagabomn — WDH4236 — position and weather

sailwx.info

Track history (hours):
 
Tides and Currents Weather Stations Pressure Air Temp Water Temp Dewpoint Dewpoint Depression Visibility Wind Speed Wind Dir Waves Ship Positions

Vagabomn

Owner: Foss, David, Seattle, WA. More information available from US FCC via Universal Licensing System and Coast Guard Vessel Documentation Center.

Last reported at 2017-Oct-15 12:08 UTC. Time now 2017-Nov-18 06:18 UTC.
Position N 32°43' W 117°14'.
Warning: this ship's position is 33 days out of date.

Length 12 m.

Type: Sailing vessel. MMSI: 367615590.

Date/timePositionNaut miles runAvg speedWind from/ knotsBaromVisibWave heightAir tempDewpointWater temp
2017-Oct-15 12:08N 32°43' W 117°14'0 0.0
2017-Oct-15 11:56N 32°43' W 117°14'0 0.0
2017-Oct-15 09:44N 32°43' W 117°14'0 0.0
2017-Oct-15 09:26N 32°43' W 117°14'0 0.0
2017-Oct-15 08:56N 32°43' W 117°14'0 0.0
2017-Oct-15 08:20N 32°43' W 117°14'0 0.0
2017-Oct-15 07:38N 32°43' W 117°14'0 0.0
2017-Oct-15 07:14N 32°43' W 117°14'0 0.0
2017-Oct-15 06:44N 32°43' W 117°14'0 0.0
2017-Oct-15 06:26N 32°43' W 117°14'0 0.0
2017-Oct-15 05:56N 32°43' W 117°14'0 0.0
2017-Oct-15 05:20N 32°43' W 117°14'0 0.0
2017-Oct-15 04:56N 32°43' W 117°14'0 0.0
2017-Oct-15 04:20N 32°43' W 117°14'0 0.0
2017-Oct-15 03:56N 32°43' W 117°14'0 0.0
2017-Oct-15 03:26N 32°43' W 117°14'0 0.0
2017-Oct-15 02:50N 32°43' W 117°14'0 0.0
2017-Oct-15 02:08N 32°43' W 117°14'0 0.0
2017-Oct-15 01:56N 32°43' W 117°14'0 0.0
2017-Oct-15 01:26N 32°43' W 117°14'0 0.0
2017-Oct-15 00:56N 32°43' W 117°14'0 0.0
2017-Oct-15 00:26N 32°43' W 117°14'0 0.0
2017-Oct-14 23:56N 32°43' W 117°14'0 0.0
2017-Oct-14 23:20N 32°43' W 117°14'0 0.0
2017-Oct-14 22:56N 32°43' W 117°14'0 0.0
2017-Oct-14 22:20N 32°43' W 117°14'0 0.0
2017-Oct-14 21:56N 32°43' W 117°14'0 0.0
2017-Oct-14 21:26N 32°43' W 117°14'0 0.0
2017-Oct-14 20:20N 32°43' W 117°14'  
2017-Oct-12 11:20N 32°43' W 117°14'0 0.0
2017-Oct-10 21:14N 32°43' W 117°14'0 0.0
2017-Oct-10 20:44N 32°43' W 117°14'0 0.0
2017-Oct-10 20:26N 32°43' W 117°14'0 0.0
2017-Oct-10 19:56N 32°43' W 117°14'0 0.0
2017-Oct-10 19:26N 32°43' W 117°14'0 0.0
2017-Oct-10 18:56N 32°43' W 117°14'0 0.0
2017-Oct-10 18:26N 32°43' W 117°14'0 0.0
2017-Oct-10 16:50N 32°43' W 117°14'0 0.0
2017-Oct-10 14:44N 32°43' W 117°14'0 0.0
2017-Oct-10 13:56N 32°43' W 117°14'0 0.0
2017-Oct-10 12:08N 32°43' W 117°14'0 0.0
2017-Oct-10 11:56N 32°43' W 117°14'0 0.0
2017-Oct-10 07:20N 32°43' W 117°14'4 0.4
2017-Oct-09 20:35N 32°46' W 117°17'1 5.8
2017-Oct-09 20:27N 32°46' W 117°17'3 5.8
2017-Oct-09 20:00N 32°49' W 117°18'3 5.9
2017-Oct-09 19:30N 32°52' W 117°18'3 6.1
2017-Oct-09 19:00N 32°55' W 117°19'3 6.0
2017-Oct-09 18:30N 32°58' W 117°20'3 5.9
2017-Oct-09 18:00N 33°00' W 117°21'3 5.8
2017-Oct-09 17:30N 33°03' W 117°22'3 5.7
2017-Oct-09 17:00N 33°06' W 117°23'3 5.7
2017-Oct-09 16:30N 33°09' W 117°24'3 5.6
2017-Oct-09 16:00N 33°11' W 117°24'1 0.2
2017-Oct-09 08:54N 33°13' W 117°24'0 0.0
2017-Oct-09 08:30N 33°13' W 117°24'0 0.0
2017-Oct-08 17:30N 33°13' W 117°24'0 0.0
2017-Oct-08 17:00N 33°13' W 117°24'0 0.0
2017-Oct-08 16:12N 33°13' W 117°24'0 0.0
2017-Oct-08 15:54N 33°13' W 117°24'0 0.0
2017-Oct-08 09:42N 33°13' W 117°24'0 0.0
2017-Oct-08 09:12N 33°13' W 117°24'0 0.0
2017-Oct-08 08:54N 33°13' W 117°24'0 0.0
2017-Oct-08 08:30N 33°13' W 117°24'0 0.0
2017-Oct-08 07:12N 33°13' W 117°24'0 0.0
2017-Oct-08 07:00N 33°13' W 117°24'0 0.0
2017-Oct-08 04:30N 33°13' W 117°24'0 0.0
2017-Oct-08 02:18N 33°13' W 117°24'0 0.0
2017-Oct-08 02:00N 33°13' W 117°24'0 0.0
2017-Oct-08 01:30N 33°13' W 117°24'0 0.0
2017-Oct-08 01:00N 33°13' W 117°24'0 0.0
2017-Oct-08 00:30N 33°13' W 117°24'0 0.0
2017-Oct-07 23:57N 33°13' W 117°24'0 0.0
2017-Oct-07 23:24N 33°13' W 117°24'0 0.0
2017-Oct-07 22:09N 33°13' W 117°24'0 0.0
2017-Oct-07 22:00N 33°13' W 117°24'1 1.8
2017-Oct-07 21:31N 33°12' W 117°25'3 6.1
2017-Oct-07 21:00N 33°14' W 117°28'3 6.3
2017-Oct-07 20:30N 33°16' W 117°30'3 6.3
2017-Oct-07 20:00N 33°18' W 117°33'3 6.5
2017-Oct-07 19:29N 33°20' W 117°36'3 6.5
2017-Oct-07 19:00N 33°23' W 117°39'3 6.3
2017-Oct-07 18:30N 33°25' W 117°41'3 6.4
2017-Oct-07 18:01N 33°27' W 117°44'3 6.2
2017-Oct-07 17:31N 33°29' W 117°47'3 5.9
2017-Oct-07 17:00N 33°31' W 117°49'3 5.9
2017-Oct-07 16:30N 33°34' W 117°51'4 0.2
2017-Oct-06 21:29N 33°36' W 117°55'3 2.1
2017-Oct-06 20:17N 33°35' W 117°53'2 5.6
2017-Oct-06 19:59N 33°36' W 117°55'4 6.0
2017-Oct-06 19:23N 33°37' W 117°59'6 5.7
2017-Oct-06 18:15N 33°39' W 118°06'1 5.5
2017-Oct-06 18:00N 33°39' W 118°08'3 5.9
2017-Oct-06 17:29N 33°40' W 118°11'3 5.7
2017-Oct-06 17:00N 33°41' W 118°14'3 5.4
2017-Oct-06 16:28N 33°41' W 118°18'3 5.7
2017-Oct-06 15:52N 33°43' W 118°22'2 5.9
2017-Oct-06 15:30N 33°44' W 118°24'29 1.3
2017-Oct-05 17:49N 33°60' W 118°53'2 5.0
2017-Oct-05 17:30N 34°00' W 118°55'3 5.2
2017-Oct-05 16:58N 34°01' W 118°58'8 5.7
2017-Oct-05 15:29N 34°05' W 119°07'3 6.1
2017-Oct-05 14:59N 34°07' W 119°10'3 5.9
2017-Oct-05 14:30N 34°08' W 119°13'3 5.6
2017-Oct-05 14:00N 34°10' W 119°15'3 5.9
2017-Oct-05 13:27N 34°14' W 119°17'1 1.6
2017-Oct-05 12:40N 34°15' W 119°16'0 0.0
2017-Oct-05 12:28N 34°15' W 119°16'  
Track history (hours):
 
Tides and Currents Weather Stations Pressure Air Temp Water Temp Dewpoint Dewpoint Depression Visibility Wind Speed Wind Dir Waves Ship Positions

Vagabomn

Owner: Foss, David, Seattle, WA. More information available from US FCC via Universal Licensing System and Coast Guard Vessel Documentation Center.

Last reported at 2017-Oct-15 12:08 UTC. Time now 2017-Nov-18 06:18 UTC.
Position N 32°43' W 117°14'.
Warning: this ship's position is 33 days out of date.

Length 12 m.

Type: Sailing vessel. MMSI: 367615590.

Date/timePositionNaut miles runAvg speedWind from/ knotsBaromVisibWave heightAir tempDewpointWater temp
2017-Oct-15 12:08N 32°43' W 117°14'0 0.0
2017-Oct-15 11:56N 32°43' W 117°14'0 0.0
2017-Oct-15 09:44N 32°43' W 117°14'0 0.0
2017-Oct-15 09:26N 32°43' W 117°14'0 0.0
2017-Oct-15 08:56N 32°43' W 117°14'0 0.0
2017-Oct-15 08:20N 32°43' W 117°14'0 0.0
2017-Oct-15 07:38N 32°43' W 117°14'0 0.0
2017-Oct-15 07:14N 32°43' W 117°14'0 0.0
2017-Oct-15 06:44N 32°43' W 117°14'0 0.0
2017-Oct-15 06:26N 32°43' W 117°14'0 0.0
2017-Oct-15 05:56N 32°43' W 117°14'0 0.0
2017-Oct-15 05:20N 32°43' W 117°14'0 0.0
2017-Oct-15 04:56N 32°43' W 117°14'0 0.0
2017-Oct-15 04:20N 32°43' W 117°14'0 0.0
2017-Oct-15 03:56N 32°43' W 117°14'0 0.0
2017-Oct-15 03:26N 32°43' W 117°14'0 0.0
2017-Oct-15 02:50N 32°43' W 117°14'0 0.0
2017-Oct-15 02:08N 32°43' W 117°14'0 0.0
2017-Oct-15 01:56N 32°43' W 117°14'0 0.0
2017-Oct-15 01:26N 32°43' W 117°14'0 0.0
2017-Oct-15 00:56N 32°43' W 117°14'0 0.0
2017-Oct-15 00:26N 32°43' W 117°14'0 0.0
2017-Oct-14 23:56N 32°43' W 117°14'0 0.0
2017-Oct-14 23:20N 32°43' W 117°14'0 0.0
2017-Oct-14 22:56N 32°43' W 117°14'0 0.0
2017-Oct-14 22:20N 32°43' W 117°14'0 0.0
2017-Oct-14 21:56N 32°43' W 117°14'0 0.0
2017-Oct-14 21:26N 32°43' W 117°14'0 0.0
2017-Oct-14 20:20N 32°43' W 117°14'  
2017-Oct-12 11:20N 32°43' W 117°14'0 0.0
2017-Oct-10 21:14N 32°43' W 117°14'0 0.0
2017-Oct-10 20:44N 32°43' W 117°14'0 0.0
2017-Oct-10 20:26N 32°43' W 117°14'0 0.0
2017-Oct-10 19:56N 32°43' W 117°14'0 0.0
2017-Oct-10 19:26N 32°43' W 117°14'0 0.0
2017-Oct-10 18:56N 32°43' W 117°14'0 0.0
2017-Oct-10 18:26N 32°43' W 117°14'0 0.0
2017-Oct-10 16:50N 32°43' W 117°14'0 0.0
2017-Oct-10 14:44N 32°43' W 117°14'0 0.0
2017-Oct-10 13:56N 32°43' W 117°14'0 0.0
2017-Oct-10 12:08N 32°43' W 117°14'0 0.0
2017-Oct-10 11:56N 32°43' W 117°14'0 0.0
2017-Oct-10 07:20N 32°43' W 117°14'4 0.4
2017-Oct-09 20:35N 32°46' W 117°17'1 5.8
2017-Oct-09 20:27N 32°46' W 117°17'3 5.8
2017-Oct-09 20:00N 32°49' W 117°18'3 5.9
2017-Oct-09 19:30N 32°52' W 117°18'3 6.1
2017-Oct-09 19:00N 32°55' W 117°19'3 6.0
2017-Oct-09 18:30N 32°58' W 117°20'3 5.9
2017-Oct-09 18:00N 33°00' W 117°21'3 5.8
2017-Oct-09 17:30N 33°03' W 117°22'3 5.7
2017-Oct-09 17:00N 33°06' W 117°23'3 5.7
2017-Oct-09 16:30N 33°09' W 117°24'3 5.6
2017-Oct-09 16:00N 33°11' W 117°24'1 0.2
2017-Oct-09 08:54N 33°13' W 117°24'0 0.0
2017-Oct-09 08:30N 33°13' W 117°24'0 0.0
2017-Oct-08 17:30N 33°13' W 117°24'0 0.0
2017-Oct-08 17:00N 33°13' W 117°24'0 0.0
2017-Oct-08 16:12N 33°13' W 117°24'0 0.0
2017-Oct-08 15:54N 33°13' W 117°24'0 0.0
2017-Oct-08 09:42N 33°13' W 117°24'0 0.0
2017-Oct-08 09:12N 33°13' W 117°24'0 0.0
2017-Oct-08 08:54N 33°13' W 117°24'0 0.0
2017-Oct-08 08:30N 33°13' W 117°24'0 0.0
2017-Oct-08 07:12N 33°13' W 117°24'0 0.0
2017-Oct-08 07:00N 33°13' W 117°24'0 0.0
2017-Oct-08 04:30N 33°13' W 117°24'0 0.0
2017-Oct-08 02:18N 33°13' W 117°24'0 0.0
2017-Oct-08 02:00N 33°13' W 117°24'0 0.0
2017-Oct-08 01:30N 33°13' W 117°24'0 0.0
2017-Oct-08 01:00N 33°13' W 117°24'0 0.0
2017-Oct-08 00:30N 33°13' W 117°24'0 0.0
2017-Oct-07 23:57N 33°13' W 117°24'0 0.0
2017-Oct-07 23:24N 33°13' W 117°24'0 0.0
2017-Oct-07 22:09N 33°13' W 117°24'0 0.0
2017-Oct-07 22:00N 33°13' W 117°24'1 1.8
2017-Oct-07 21:31N 33°12' W 117°25'3 6.1
2017-Oct-07 21:00N 33°14' W 117°28'3 6.3
2017-Oct-07 20:30N 33°16' W 117°30'3 6.3
2017-Oct-07 20:00N 33°18' W 117°33'3 6.5
2017-Oct-07 19:29N 33°20' W 117°36'3 6.5
2017-Oct-07 19:00N 33°23' W 117°39'3 6.3
2017-Oct-07 18:30N 33°25' W 117°41'3 6.4
2017-Oct-07 18:01N 33°27' W 117°44'3 6.2
2017-Oct-07 17:31N 33°29' W 117°47'3 5.9
2017-Oct-07 17:00N 33°31' W 117°49'3 5.9
2017-Oct-07 16:30N 33°34' W 117°51'4 0.2
2017-Oct-06 21:29N 33°36' W 117°55'3 2.1
2017-Oct-06 20:17N 33°35' W 117°53'2 5.6
2017-Oct-06 19:59N 33°36' W 117°55'4 6.0
2017-Oct-06 19:23N 33°37' W 117°59'6 5.7
2017-Oct-06 18:15N 33°39' W 118°06'1 5.5
2017-Oct-06 18:00N 33°39' W 118°08'3 5.9
2017-Oct-06 17:29N 33°40' W 118°11'3 5.7
2017-Oct-06 17:00N 33°41' W 118°14'3 5.4
2017-Oct-06 16:28N 33°41' W 118°18'3 5.7
2017-Oct-06 15:52N 33°43' W 118°22'2 5.9
2017-Oct-06 15:30N 33°44' W 118°24'29 1.3
2017-Oct-05 17:49N 33°60' W 118°53'2 5.0
2017-Oct-05 17:30N 34°00' W 118°55'3 5.2
2017-Oct-05 16:58N 34°01' W 118°58'8 5.7
2017-Oct-05 15:29N 34°05' W 119°07'3 6.1
2017-Oct-05 14:59N 34°07' W 119°10'3 5.9
2017-Oct-05 14:30N 34°08' W 119°13'3 5.6
2017-Oct-05 14:00N 34°10' W 119°15'3 5.9
2017-Oct-05 13:27N 34°14' W 119°17'1 1.6
2017-Oct-05 12:40N 34°15' W 119°16'0 0.0
2017-Oct-05 12:28N 34°15' W 119°16'  

Dump ship's entire track history